Melcher Dallas, Iowa
Current Conditions -  °F | °C
As of 9:55 AM on Friday 21 Nov 2014 (Local Time) from KOXV Reporting Station
Clear Clear  
Wind Chill: 13°   Ceiling: Unl
Heat Index: 25°   Visibility: 10mi
Dew Point: 12°   Wind: 13mph
Humidity: 59%   Direction: 150°SSE
Pressure: 30.3"   Gusts: NA
Location:  41.2269°N, 93.1611°W
Report Text: KOXV 211555Z AUTO 15011KT 10SM CLR M04/M11 A3030 RMK AO2
Loading
Personal Weather Stations






























Interactive Weather Map New forecast layout! Learn more

10-Day Weather Forecast

Advertisements
Track Severe Weather on mobile